createdAt,value
2022-10-11T00:08:37.183Z,11.01
2022-10-11T00:18:44.807Z,10.98
2022-10-11T00:28:54.219Z,10.95
2022-10-11T00:39:01.989Z,11.01
2022-10-11T00:49:15.870Z,11.07
2022-10-11T00:59:24.625Z,11.05
2022-10-11T01:09:32.961Z,10.95
2022-10-11T01:19:43.721Z,10.84
2022-10-11T01:29:55.102Z,10.80
2022-10-11T01:40:08.584Z,10.82
2022-10-11T01:50:45.471Z,10.82
2022-10-11T02:00:50.478Z,10.77
2022-10-11T02:10:56.274Z,10.68
2022-10-11T02:21:06.960Z,10.62
2022-10-11T02:31:16.735Z,10.64
2022-10-11T02:41:24.632Z,10.73
2022-10-11T02:51:32.875Z,10.78
2022-10-11T03:01:40.010Z,10.78
2022-10-11T03:11:47.225Z,10.75
2022-10-11T03:21:54.544Z,10.70
2022-10-11T03:32:02.293Z,10.71
2022-10-11T03:42:09.848Z,10.71
2022-10-11T03:52:16.789Z,10.71
2022-10-11T04:02:23.796Z,10.61
2022-10-11T04:12:30.823Z,10.53
2022-10-11T04:22:38.673Z,10.47
2022-10-11T04:32:45.292Z,10.36
2022-10-11T04:42:54.001Z,10.33
2022-10-11T04:53:00.936Z,10.38
2022-10-11T05:03:07.882Z,10.48
2022-10-11T05:13:14.792Z,10.58
2022-10-11T05:23:21.875Z,10.62
2022-10-11T05:33:29.098Z,10.62
2022-10-11T05:43:36.518Z,10.65
2022-10-11T05:53:43.561Z,10.57
2022-10-11T06:03:51.144Z,10.66
2022-10-11T06:13:58.264Z,11.57
2022-10-11T06:24:05.916Z,12.75
2022-10-11T06:34:13.328Z,13.25
2022-10-11T06:44:20.695Z,13.33
2022-10-11T06:54:26.598Z,13.47
2022-10-11T07:04:33.209Z,13.65
2022-10-11T07:14:41.101Z,13.23
2022-10-11T07:24:49.354Z,12.69
2022-10-11T07:34:55.908Z,12.16
2022-10-11T07:45:03.324Z,11.91
2022-10-11T07:55:11.729Z,11.78
2022-10-11T08:05:17.687Z,11.59
2022-10-11T08:15:24.757Z,11.80
2022-10-11T08:25:31.707Z,11.98
2022-10-11T08:35:39.036Z,12.16
2022-10-11T08:45:51.695Z,12.20
2022-10-11T08:55:58.827Z,12.31
2022-10-11T09:06:07.709Z,12.43
2022-10-11T09:16:15.584Z,12.44
2022-10-11T09:26:29.017Z,12.56
2022-10-11T09:36:37.196Z,12.44
2022-10-11T09:46:43.784Z,12.30
2022-10-11T09:56:51.573Z,12.58
2022-10-11T10:07:11.279Z,12.89
2022-10-11T10:17:20.117Z,12.93
2022-10-11T10:27:30.103Z,13.22
2022-10-11T10:37:37.573Z,13.71
2022-10-11T10:48:05.826Z,13.91
2022-10-11T10:58:32.018Z,14.06
2022-10-11T11:08:56.005Z,13.95
2022-10-11T11:19:07.748Z,14.02
2022-10-11T11:29:15.838Z,14.31
2022-10-11T11:39:23.701Z,14.62
2022-10-11T11:59:37.344Z,13.84
2022-10-11T12:09:50.695Z,13.95
2022-10-11T12:20:21.408Z,13.96
2022-10-11T12:30:51.020Z,14.10
2022-10-11T12:40:57.263Z,14.17
2022-10-11T12:51:16.273Z,14.16
2022-10-11T13:01:22.262Z,14.04
2022-10-11T13:11:30.219Z,14.04
2022-10-11T13:21:39.822Z,14.02
2022-10-11T13:31:49.238Z,13.96
2022-10-11T13:41:55.549Z,13.91
2022-10-11T13:52:07.126Z,13.78
2022-10-11T14:02:14.437Z,13.69
2022-10-11T14:12:29.373Z,13.58
2022-10-11T14:22:36.979Z,13.49
2022-10-11T14:32:44.552Z,13.42
2022-10-11T14:42:52.359Z,13.25
2022-10-11T14:53:00.235Z,13.00
2022-10-11T15:03:07.436Z,12.78
2022-10-11T15:13:13.261Z,12.54
2022-10-11T15:23:21.018Z,12.29
2022-10-11T15:33:28.396Z,11.99
2022-10-11T15:43:35.577Z,11.69
2022-10-11T15:53:42.881Z,11.35
2022-10-11T16:03:51.876Z,10.96
2022-10-11T16:13:59.396Z,10.60
2022-10-11T16:24:07.014Z,10.24
2022-10-11T16:34:14.140Z,9.83
2022-10-11T16:44:21.347Z,9.34
2022-10-11T16:54:30.467Z,8.93
2022-10-11T17:04:37.659Z,8.61
2022-10-11T17:14:43.915Z,8.36
2022-10-11T17:34:57.656Z,7.98
2022-10-11T17:45:04.949Z,7.70
2022-10-11T17:55:09.816Z,7.34
2022-10-11T18:05:17.895Z,7.13
2022-10-11T18:15:24.947Z,7.04
2022-10-11T18:25:33.975Z,7.05
2022-10-11T18:35:40.187Z,6.85
2022-10-11T18:45:47.575Z,6.63
2022-10-11T18:55:58.590Z,6.45
2022-10-11T19:06:03.855Z,6.45
2022-10-11T19:16:12.033Z,6.35
2022-10-11T19:26:34.436Z,6.28
2022-10-11T19:36:41.172Z,6.13
2022-10-11T19:46:52.994Z,6.33
2022-10-11T19:57:00.813Z,6.32
2022-10-11T20:07:08.079Z,6.24
2022-10-11T20:17:16.353Z,5.98
2022-10-11T20:27:22.663Z,5.76
2022-10-11T20:37:28.799Z,5.67
2022-10-11T20:47:36.521Z,5.60
2022-10-11T20:57:44.257Z,5.56
2022-10-11T21:07:53.234Z,5.46
2022-10-11T21:18:00.334Z,5.39
2022-10-11T21:28:08.241Z,5.31
2022-10-11T21:38:15.476Z,5.23
2022-10-11T21:48:23.130Z,5.15
2022-10-11T21:58:31.168Z,5.13
2022-10-11T22:08:40.523Z,4.95
2022-10-11T22:18:47.246Z,4.77
2022-10-11T22:28:54.533Z,4.64
2022-10-11T22:39:03.027Z,4.61
2022-10-11T22:49:10.426Z,4.66
2022-10-11T22:59:17.068Z,4.67
2022-10-11T23:09:24.308Z,4.70
2022-10-11T23:19:31.516Z,4.68
2022-10-11T23:29:38.456Z,4.54
2022-10-11T23:39:45.776Z,4.36
2022-10-11T23:49:53.074Z,4.35
2022-10-11T23:59:59.149Z,4.32
